Time;durP1;ratioP1;P1;durP2;ratioP2;P2;SDS_P1;SDS_P2;PMS_P1;PMS_P2;Temp;Humidity;BMP_temperature;BMP_pressure;BME280_temperature;BME280_humidity;BME280_pressure;Samples;Min_cycle;Max_cycle;Signal;HPM_P1;HPM_P2
2023/09/30 00:01:27;;;;;;;9.15;3.95;;;12.10;99.90;;;;;;4995106;28;20148;-61
2023/09/30 00:03:53;;;;;;;13.98;4.97;;;12.00;99.90;;;;;;5012709;28;20042;-62
2023/09/30 00:06:19;;;;;;;8.40;3.58;;;12.00;99.90;;;;;;5012646;28;20519;-61
2023/09/30 00:08:46;;;;;;;10.13;3.83;;;12.00;99.90;;;;;;4994344;28;20043;-63
2023/09/30 00:11:16;;;;;;;9.88;4.43;;;12.00;99.90;;;;;;4992496;28;20050;-63
2023/09/30 00:13:43;;;;;;;8.60;4.70;;;12.00;99.90;;;;;;4975644;28;20046;-62
2023/09/30 00:16:09;;;;;;;12.73;4.63;;;12.00;99.90;;;;;;4992915;28;20475;-61
2023/09/30 00:18:35;;;;;;;11.80;5.05;;;11.90;99.90;;;;;;5009209;28;20085;-61
2023/09/30 00:21:02;;;;;;;12.90;4.97;;;11.90;99.90;;;;;;5012041;28;20054;-61
2023/09/30 00:23:28;;;;;;;13.45;4.25;;;11.90;99.90;;;;;;5011873;28;20347;-62
2023/09/30 00:25:55;;;;;;;12.18;5.10;;;11.90;99.90;;;;;;5012516;28;20038;-62
2023/09/30 00:28:22;;;;;;;11.82;4.75;;;11.80;99.90;;;;;;4997351;28;20483;-61
2023/09/30 00:30:48;;;;;;;12.38;5.25;;;11.90;99.90;;;;;;4992106;28;20046;-59
2023/09/30 00:33:14;;;;;;;9.38;4.47;;;11.90;99.90;;;;;;4992594;28;20470;-61
2023/09/30 00:35:40;;;;;;;12.82;4.93;;;12.00;99.90;;;;;;4992774;28;20121;-61
2023/09/30 00:38:08;;;;;;;8.85;4.35;;;12.00;99.90;;;;;;5004763;28;20120;-61
2023/09/30 00:40:35;;;;;;;12.48;4.80;;;11.90;99.90;;;;;;4994174;28;20061;-59
2023/09/30 00:43:01;;;;;;;9.50;4.45;;;12.00;99.90;;;;;;5012051;28;20069;-62
2023/09/30 00:45:28;;;;;;;18.25;5.32;;;12.00;99.90;;;;;;5011722;28;20050;-62
2023/09/30 00:47:55;;;;;;;13.52;4.65;;;12.00;99.90;;;;;;5000887;28;20042;-61
2023/09/30 00:50:22;;;;;;;9.27;4.65;;;12.00;99.90;;;;;;4991888;28;20042;-61
2023/09/30 00:52:49;;;;;;;12.60;4.57;;;12.00;99.90;;;;;;4992064;28;20058;-61
2023/09/30 00:55:17;;;;;;;10.98;4.30;;;11.90;99.90;;;;;;4991993;28;20069;-59
2023/09/30 00:57:44;;;;;;;9.82;4.45;;;12.00;99.90;;;;;;5000654;28;20105;-62
2023/09/30 01:00:12;;;;;;;9.63;4.53;;;12.10;99.90;;;;;;5011535;28;20053;-63
2023/09/30 01:02:41;;;;;;;10.27;4.97;;;12.00;99.90;;;;;;5011264;28;20477;-61
2023/09/30 01:05:08;;;;;;;11.65;4.65;;;12.00;99.90;;;;;;5011448;28;20466;-60
2023/09/30 01:07:37;;;;;;;11.40;4.80;;;12.00;99.90;;;;;;5003573;28;20065;-62
2023/09/30 01:10:03;;;;;;;10.73;4.72;;;12.00;99.90;;;;;;4991412;28;20505;-62
2023/09/30 01:12:29;;;;;;;11.48;4.65;;;12.00;99.90;;;;;;4991435;28;20054;-61
2023/09/30 01:15:02;;;;;;;9.68;4.60;;;12.00;99.90;;;;;;4991627;28;20120;-62
2023/09/30 01:17:29;;;;;;;10.23;5.45;;;12.00;99.90;;;;;;5001867;28;20046;-60
2023/09/30 01:19:59;;;;;;;12.32;4.95;;;12.00;99.90;;;;;;4991573;28;20042;-62
2023/09/30 01:22:27;;;;;;;11.32;4.70;;;12.00;99.90;;;;;;4991190;28;20065;-61
2023/09/30 01:24:53;;;;;;;12.55;5.07;;;12.00;99.90;;;;;;4991706;28;20050;-59
2023/09/30 01:27:20;;;;;;;12.43;4.72;;;12.00;99.90;;;;;;4997372;28;20053;-60
2023/09/30 01:29:46;;;;;;;16.05;4.80;;;12.10;99.90;;;;;;5010942;28;20112;-60
2023/09/30 01:32:13;;;;;;;13.38;4.45;;;12.00;99.90;;;;;;5010002;28;20050;-62
2023/09/30 01:34:40;;;;;;;11.35;4.28;;;12.00;99.90;;;;;;5011000;28;20062;-61
2023/09/30 01:37:06;;;;;;;8.02;3.97;;;12.10;99.90;;;;;;5006454;28;20046;-62
2023/09/30 01:39:33;;;;;;;10.50;4.05;;;12.10;99.90;;;;;;5004769;28;20068;-60
2023/09/30 01:41:59;;;;;;;11.82;4.38;;;12.00;99.90;;;;;;5009744;28;20351;-61
2023/09/30 01:44:26;;;;;;;12.02;4.82;;;12.00;99.90;;;;;;5010611;28;20069;-60
2023/09/30 01:46:52;;;;;;;13.73;4.78;;;12.10;99.90;;;;;;5010464;28;20398;-62
2023/09/30 01:49:18;;;;;;;14.98;5.28;;;12.10;99.90;;;;;;4993185;28;20423;-62
2023/09/30 01:51:45;;;;;;;16.65;4.65;;;12.00;99.90;;;;;;5009875;28;20395;-61
2023/09/30 01:54:12;;;;;;;11.05;4.72;;;12.10;99.90;;;;;;5010517;28;20053;-61
2023/09/30 01:56:38;;;;;;;11.57;4.18;;;12.00;99.90;;;;;;5010436;28;20485;-61
2023/09/30 01:59:04;;;;;;;12.65;4.90;;;11.90;99.90;;;;;;5010359;28;20063;-63
2023/09/30 02:01:30;;;;;;;10.55;5.00;;;11.90;99.90;;;;;;5010028;28;20054;-61
2023/09/30 02:03:57;;;;;;;9.55;4.35;;;11.90;99.90;;;;;;5010643;28;20054;-61
2023/09/30 02:06:23;;;;;;;13.65;4.47;;;12.00;99.90;;;;;;5010193;28;20056;-61
2023/09/30 02:08:50;;;;;;;11.23;4.28;;;11.90;99.90;;;;;;5009830;28;20061;-61
2023/09/30 02:11:17;;;;;;;12.52;4.40;;;11.90;99.90;;;;;;5009763;28;20046;-60
2023/09/30 02:13:44;;;;;;;12.52;4.93;;;11.90;99.90;;;;;;4993000;28;20046;-62
2023/09/30 02:16:14;;;;;;;9.73;4.60;;;11.80;99.90;;;;;;5010372;28;20064;-61
2023/09/30 02:18:44;;;;;;;10.55;4.80;;;11.80;99.90;;;;;;5010068;28;20066;-60
2023/09/30 02:21:11;;;;;;;9.52;5.15;;;11.90;99.90;;;;;;5009006;28;20482;-60
2023/09/30 02:23:37;;;;;;;11.77;4.70;;;11.80;99.90;;;;;;5010498;28;20058;-60
2023/09/30 02:26:03;;;;;;;11.80;4.93;;;11.80;99.90;;;;;;5010320;28;20346;-61
2023/09/30 02:28:34;;;;;;;9.27;4.35;;;11.80;99.90;;;;;;5009308;28;20391;-63
2023/09/30 02:31:01;;;;;;;9.05;4.38;;;11.80;99.90;;;;;;5009871;28;20049;-58
2023/09/30 02:33:27;;;;;;;12.63;4.93;;;11.90;99.90;;;;;;5009990;28;20061;-60
2023/09/30 02:35:54;;;;;;;14.75;5.55;;;11.80;99.90;;;;;;5010066;28;20077;-62
2023/09/30 02:38:20;;;;;;;12.52;5.65;;;11.80;99.90;;;;;;5009542;28;20064;-60
2023/09/30 02:40:48;;;;;;;11.43;5.60;;;11.80;99.90;;;;;;5009422;28;20053;-61
2023/09/30 02:43:14;;;;;;;14.48;5.68;;;11.90;99.90;;;;;;4992614;28;20050;-62
2023/09/30 02:45:40;;;;;;;11.95;5.10;;;11.80;99.90;;;;;;5010364;28;20065;-62
2023/09/30 02:48:08;;;;;;;12.38;5.57;;;11.80;99.90;;;;;;5009508;28;20152;-62
2023/09/30 02:50:34;;;;;;;9.70;5.35;;;11.80;99.90;;;;;;5009605;28;20050;-62
2023/09/30 02:53:01;;;;;;;10.73;5.43;;;11.90;99.90;;;;;;5009923;28;20058;-61
2023/09/30 02:55:27;;;;;;;9.55;5.90;;;11.80;99.90;;;;;;5009803;28;20053;-61
2023/09/30 02:57:53;;;;;;;11.95;5.57;;;11.80;99.90;;;;;;5009377;28;20046;-61
2023/09/30 03:00:24;;;;;;;9.73;5.57;;;11.80;99.90;;;;;;5009460;28;20057;-59
2023/09/30 03:02:53;;;;;;;13.45;5.72;;;11.80;99.90;;;;;;5009858;28;20049;-62
2023/09/30 03:05:20;;;;;;;8.85;5.47;;;11.80;99.90;;;;;;5009584;28;20094;-63
2023/09/30 03:07:47;;;;;;;10.98;5.45;;;11.80;99.90;;;;;;5009104;28;20046;-62
2023/09/30 03:10:14;;;;;;;11.02;6.47;;;11.70;99.90;;;;;;5009256;28;20077;-62
2023/09/30 03:12:41;;;;;;;9.98;5.95;;;11.80;99.90;;;;;;5009708;28;20328;-59
2023/09/30 03:15:08;;;;;;;14.98;6.55;;;11.70;99.90;;;;;;4991882;28;20058;-61
2023/09/30 03:17:37;;;;;;;12.50;6.15;;;11.70;99.90;;;;;;4991546;28;20441;-61
2023/09/30 03:20:11;;;;;;;11.38;6.80;;;11.70;99.90;;;;;;4992433;28;20420;-61
2023/09/30 03:22:42;;;;;;;14.63;7.20;;;11.70;99.90;;;;;;5010085;28;20045;-61
2023/09/30 03:25:11;;;;;;;12.85;6.28;;;11.70;99.90;;;;;;5009831;28;20053;-60
2023/09/30 03:27:38;;;;;;;15.50;7.38;;;11.70;99.90;;;;;;5009862;28;20088;-61
2023/09/30 03:30:06;;;;;;;13.75;7.05;;;11.70;99.90;;;;;;5009135;28;20046;-62
2023/09/30 03:32:38;;;;;;;12.02;6.18;;;11.70;99.90;;;;;;5012059;28;20357;-61
2023/09/30 03:35:07;;;;;;;14.27;6.63;;;11.70;99.90;;;;;;4995812;28;20151;-62
2023/09/30 03:37:34;;;;;;;12.90;6.85;;;11.70;99.90;;;;;;5013192;28;20057;-60
2023/09/30 03:40:11;;;;;;;12.25;6.97;;;11.70;99.90;;;;;;5012380;28;20050;-62
2023/09/30 03:42:42;;;;;;;10.60;6.47;;;11.60;99.90;;;;;;5013349;28;20149;-59
2023/09/30 03:45:09;;;;;;;13.27;6.72;;;11.70;99.90;;;;;;5013562;28;20359;-62
2023/09/30 03:47:37;;;;;;;14.93;7.35;;;11.70;99.90;;;;;;5012757;28;20057;-62
2023/09/30 03:50:12;;;;;;;11.68;7.32;;;11.70;99.90;;;;;;5012617;28;20068;-60
2023/09/30 03:52:39;;;;;;;13.75;7.65;;;11.70;99.90;;;;;;5013149;28;20050;-61
2023/09/30 03:55:05;;;;;;;16.60;7.95;;;11.70;99.90;;;;;;4995186;28;20065;-61
2023/09/30 03:57:33;;;;;;;16.90;7.82;;;11.70;99.90;;;;;;5012802;28;20121;-59
2023/09/30 04:00:06;;;;;;;13.90;8.48;;;11.70;99.90;;;;;;5012459;28;20053;-61
2023/09/30 04:02:33;;;;;;;18.67;8.32;;;11.60;99.90;;;;;;5013081;28;20087;-60
2023/09/30 04:05:03;;;;;;;13.48;8.27;;;11.70;99.90;;;;;;5012504;28;20049;-62
2023/09/30 04:07:30;;;;;;;16.20;8.43;;;11.70;99.90;;;;;;4995827;28;20112;-60
2023/09/30 04:09:57;;;;;;;15.95;8.55;;;11.70;99.90;;;;;;5012032;28;20062;-61
2023/09/30 04:12:24;;;;;;;14.80;8.55;;;11.70;99.90;;;;;;4994990;28;20092;-61
2023/09/30 04:14:51;;;;;;;13.73;8.68;;;11.70;99.90;;;;;;4995043;28;20454;-62
2023/09/30 04:17:18;;;;;;;19.83;8.98;;;11.60;99.90;;;;;;4994580;28;20037;-61
2023/09/30 04:19:45;;;;;;;14.38;8.55;;;11.70;99.90;;;;;;4994989;28;20057;-61
2023/09/30 04:22:13;;;;;;;14.55;8.93;;;11.60;99.90;;;;;;4995026;28;20058;-62
2023/09/30 04:24:39;;;;;;;11.90;8.57;;;11.70;99.90;;;;;;4994918;28;20050;-60
2023/09/30 04:27:07;;;;;;;14.77;9.50;;;11.70;99.90;;;;;;4994709;28;20068;-62
2023/09/30 04:29:34;;;;;;;16.42;9.38;;;11.70;99.90;;;;;;5012147;28;20050;-61
2023/09/30 04:32:01;;;;;;;17.45;9.10;;;11.60;99.90;;;;;;5012049;28;20057;-62
2023/09/30 04:34:27;;;;;;;13.20;8.60;;;11.70;99.90;;;;;;5012216;28;20414;-62
2023/09/30 04:36:54;;;;;;;18.23;9.07;;;11.70;99.90;;;;;;5011696;28;20063;-62
2023/09/30 04:39:21;;;;;;;15.20;9.63;;;11.60;99.90;;;;;;5011548;28;20056;-61
2023/09/30 04:41:47;;;;;;;16.63;9.93;;;11.60;99.90;;;;;;5011488;28;20074;-62
2023/09/30 04:44:14;;;;;;;14.05;8.50;;;11.60;99.90;;;;;;5010580;28;20042;-61
2023/09/30 04:46:40;;;;;;;16.10;8.73;;;11.70;99.90;;;;;;5012076;28;20046;-60
2023/09/30 04:49:09;;;;;;;15.63;8.70;;;11.50;99.90;;;;;;5011668;28;20042;-60
2023/09/30 04:51:39;;;;;;;16.15;9.15;;;11.60;99.90;;;;;;4994531;28;20042;-62
2023/09/30 04:54:08;;;;;;;16.00;8.90;;;11.60;99.90;;;;;;4994084;28;20462;-62
2023/09/30 04:56:35;;;;;;;15.77;8.88;;;11.60;99.90;;;;;;5011753;28;20053;-62
2023/09/30 04:59:02;;;;;;;15.35;9.32;;;11.60;99.90;;;;;;5011399;28;20116;-60
2023/09/30 05:01:30;;;;;;;18.25;8.70;;;11.60;99.90;;;;;;5011061;28;20049;-60
2023/09/30 05:03:57;;;;;;;16.65;9.07;;;11.50;99.90;;;;;;5011538;28;20053;-62
2023/09/30 05:06:26;;;;;;;12.75;8.05;;;11.60;99.90;;;;;;5011616;28;20049;-61
2023/09/30 05:08:55;;;;;;;13.85;8.85;;;11.50;99.90;;;;;;5011231;28;20133;-61
2023/09/30 05:11:21;;;;;;;19.17;9.07;;;11.50;99.90;;;;;;5011332;28;20061;-60
2023/09/30 05:13:48;;;;;;;15.32;9.05;;;11.60;99.90;;;;;;5011168;28;20054;-61
2023/09/30 05:16:14;;;;;;;15.65;10.05;;;11.50;99.90;;;;;;5011115;28;20346;-62
2023/09/30 05:18:41;;;;;;;17.10;9.73;;;11.50;99.90;;;;;;5010976;28;20058;-61
2023/09/30 05:21:10;;;;;;;14.70;8.77;;;11.60;99.90;;;;;;4994144;28;20049;-62
2023/09/30 05:23:38;;;;;;;16.17;9.60;;;11.50;99.90;;;;;;5011021;28;20049;-61
2023/09/30 05:26:05;;;;;;;15.25;9.55;;;11.50;99.90;;;;;;5010377;28;20178;-61
2023/09/30 05:28:32;;;;;;;18.77;9.23;;;11.50;99.90;;;;;;5010622;28;20045;-60
2023/09/30 05:30:58;;;;;;;16.67;9.05;;;11.40;99.90;;;;;;5010122;28;20068;-62
2023/09/30 05:33:28;;;;;;;15.55;8.88;;;11.50;99.90;;;;;;5011038;28;20046;-61
2023/09/30 05:35:54;;;;;;;17.13;9.18;;;11.50;99.90;;;;;;4977198;28;20042;-61
2023/09/30 05:38:23;;;;;;;14.07;8.20;;;11.40;99.90;;;;;;5010243;28;20359;-62
2023/09/30 05:40:49;;;;;;;16.63;10.00;;;11.50;99.90;;;;;;4992993;28;20060;-61
2023/09/30 05:43:16;;;;;;;14.80;10.40;;;11.50;99.90;;;;;;5010952;28;20084;-62
2023/09/30 05:45:49;;;;;;;17.60;9.95;;;11.40;99.90;;;;;;5010854;28;20046;-60
2023/09/30 05:48:17;;;;;;;20.02;10.13;;;11.50;99.90;;;;;;5010649;28;20042;-61
2023/09/30 05:50:43;;;;;;;16.80;10.98;;;11.40;99.90;;;;;;5010387;28;20061;-62
2023/09/30 05:53:10;;;;;;;18.65;9.93;;;11.50;99.90;;;;;;5010843;28;20117;-61
2023/09/30 05:55:38;;;;;;;22.05;11.88;;;11.50;99.90;;;;;;5010749;28;20049;-62
2023/09/30 05:58:05;;;;;;;16.67;9.73;;;11.60;99.90;;;;;;5010063;28;20482;-62
2023/09/30 06:00:34;;;;;;;16.02;9.20;;;11.50;99.90;;;;;;5010272;28;20046;-63
2023/09/30 06:03:06;;;;;;;;;;;11.60;99.90;;;;;;5011261;28;20060;-62
2023/09/30 06:05:32;;;;;;;15.02;9.57;;;11.60;99.90;;;;;;5010593;28;20494;-62
2023/09/30 06:08:04;;;;;;;17.23;9.77;;;11.60;99.90;;;;;;5010390;28;20042;-62
2023/09/30 06:10:31;;;;;;;20.23;10.70;;;11.60;99.90;;;;;;4992976;28;20056;-60
2023/09/30 06:12:58;;;;;;;17.45;10.68;;;11.60;99.90;;;;;;5010285;28;20041;-60
2023/09/30 06:15:28;;;;;;;19.27;10.38;;;11.70;99.90;;;;;;5010326;28;20334;-62
2023/09/30 06:17:57;;;;;;;20.13;11.18;;;11.70;99.90;;;;;;5009900;28;20057;-62
2023/09/30 06:20:26;;;;;;;19.58;10.65;;;11.70;99.90;;;;;;5009149;28;20068;-62
2023/09/30 06:22:55;;;;;;;17.55;11.02;;;11.80;99.90;;;;;;5010020;28;20061;-62
2023/09/30 06:25:23;;;;;;;17.48;10.98;;;11.90;99.90;;;;;;5010442;28;20046;-62
2023/09/30 06:27:50;;;;;;;20.10;11.52;;;12.10;99.90;;;;;;4996044;28;20056;-61
2023/09/30 06:30:20;;;;;;;22.50;12.52;;;12.20;99.90;;;;;;5009862;28;20109;-63
2023/09/30 06:32:47;;;;;;;21.88;12.07;;;12.20;99.90;;;;;;5009743;28;20425;-61
2023/09/30 06:35:13;;;;;;;20.70;11.40;;;12.30;99.90;;;;;;5010002;28;20255;-61
2023/09/30 06:37:42;;;;;;;24.20;12.32;;;12.40;99.90;;;;;;5009774;28;20062;-64
2023/09/30 06:40:12;;;;;;;23.27;12.05;;;12.40;99.90;;;;;;5009620;28;20061;-62
2023/09/30 06:42:42;;;;;;;21.17;12.98;;;12.60;99.90;;;;;;5009944;28;20056;-62
2023/09/30 06:45:09;;;;;;;19.95;12.85;;;12.50;99.90;;;;;;5010016;28;20416;-63
2023/09/30 06:47:38;;;;;;;17.98;12.05;;;12.50;99.90;;;;;;5009924;28;20108;-62
2023/09/30 06:50:09;;;;;;;23.85;11.90;;;12.50;99.90;;;;;;5009719;28;20042;-63
2023/09/30 06:52:37;;;;;;;20.17;11.88;;;12.50;99.90;;;;;;5009645;28;20304;-62
2023/09/30 06:55:04;;;;;;;18.40;11.85;;;12.40;99.90;;;;;;4991883;28;20068;-63
2023/09/30 06:57:35;;;;;;;22.55;12.35;;;12.40;99.90;;;;;;5009457;28;20438;-61
2023/09/30 07:00:11;;;;;;;16.95;11.95;;;12.40;99.90;;;;;;4992188;28;20053;-62
2023/09/30 07:02:41;;;;;;;24.70;13.05;;;12.50;99.90;;;;;;5009799;28;20050;-59
2023/09/30 07:05:14;;;;;;;17.73;11.70;;;12.50;99.90;;;;;;5010028;28;20068;-59
2023/09/30 07:07:45;;;;;;;18.92;11.90;;;12.60;99.90;;;;;;5012410;28;20052;-63
2023/09/30 07:10:12;;;;;;;16.90;11.48;;;12.60;99.90;;;;;;5013546;28;20045;-61
2023/09/30 07:12:39;;;;;;;20.02;12.18;;;12.80;99.90;;;;;;4995841;28;20125;-61
2023/09/30 07:15:06;;;;;;;18.88;12.00;;;12.80;99.90;;;;;;4994852;28;20057;-62
2023/09/30 07:17:33;;;;;;;21.05;13.05;;;12.70;99.90;;;;;;5010482;28;20071;-60
2023/09/30 07:20:00;;;;;;;20.42;13.15;;;12.80;99.90;;;;;;5012188;28;20327;-62
2023/09/30 07:22:26;;;;;;;21.65;11.45;;;12.80;99.90;;;;;;5013219;28;20359;-62
2023/09/30 07:24:53;;;;;;;16.42;10.88;;;12.80;99.90;;;;;;5013379;28;20255;-62
2023/09/30 07:27:21;;;;;;;23.08;13.43;;;12.90;99.90;;;;;;4996021;28;20054;-62
2023/09/30 07:29:48;;;;;;;20.10;12.60;;;13.00;99.90;;;;;;5011599;28;20482;-61
2023/09/30 07:32:14;;;;;;;19.55;12.52;;;13.00;99.90;;;;;;5013280;28;20050;-63
2023/09/30 07:34:41;;;;;;;18.95;12.48;;;13.00;99.90;;;;;;5012416;28;20435;-61
2023/09/30 07:37:07;;;;;;;21.45;13.27;;;13.00;99.90;;;;;;5013476;28;20060;-62
2023/09/30 07:39:34;;;;;;;23.92;13.77;;;13.00;99.90;;;;;;5011389;28;20069;-63
2023/09/30 07:42:01;;;;;;;19.75;11.90;;;13.10;99.90;;;;;;4993176;28;20262;-60
2023/09/30 07:44:27;;;;;;;17.52;12.15;;;13.30;99.90;;;;;;4993338;28;20054;-60
2023/09/30 07:46:53;;;;;;;20.15;10.90;;;13.40;99.90;;;;;;4975690;28;20371;-62
2023/09/30 07:49:20;;;;;;;18.90;11.48;;;13.30;99.90;;;;;;4998718;28;20439;-63
2023/09/30 07:51:49;;;;;;;21.08;14.52;;;13.50;99.90;;;;;;4992616;28;20054;-62
2023/09/30 07:54:17;;;;;;;20.25;12.35;;;13.50;99.90;;;;;;4992462;28;20371;-61
2023/09/30 07:56:43;;;;;;;19.95;12.32;;;13.60;99.90;;;;;;4991926;28;20335;-62
2023/09/30 07:59:09;;;;;;;21.50;13.65;;;13.70;99.90;;;;;;4975773;28;20456;-61
2023/09/30 08:01:38;;;;;;;20.13;13.73;;;13.90;99.90;;;;;;4992918;28;20062;-62
2023/09/30 08:04:04;;;;;;;18.70;13.25;;;14.00;99.90;;;;;;4993402;28;20456;-62
2023/09/30 08:06:31;;;;;;;20.75;13.65;;;14.10;99.90;;;;;;4991510;28;20587;-61
2023/09/30 08:08:57;;;;;;;21.02;12.65;;;14.30;99.90;;;;;;4976032;28;20390;-62
2023/09/30 08:11:27;;;;;;;23.40;14.02;;;14.20;99.90;;;;;;4992589;28;20046;-61
2023/09/30 08:13:58;;;;;;;22.90;13.50;;;14.50;99.90;;;;;;4992931;28;20054;-61
2023/09/30 08:16:25;;;;;;;20.63;12.57;;;14.50;99.90;;;;;;4993512;28;20046;-63
2023/09/30 08:18:51;;;;;;;21.45;14.23;;;14.70;99.90;;;;;;5005465;28;20054;-61
2023/09/30 08:21:17;;;;;;;19.85;14.63;;;14.70;99.90;;;;;;5010500;28;20057;-62
2023/09/30 08:23:44;;;;;;;19.25;14.43;;;14.80;99.90;;;;;;5012379;28;20046;-62
2023/09/30 08:26:10;;;;;;;19.85;13.80;;;14.90;99.90;;;;;;5012648;28;20041;-59
2023/09/30 08:28:36;;;;;;;18.90;13.57;;;15.00;99.90;;;;;;4999307;28;20101;-62
2023/09/30 08:31:04;;;;;;;24.67;14.00;;;15.10;99.90;;;;;;4992182;28;20054;-58
2023/09/30 08:33:31;;;;;;;19.45;13.98;;;15.20;99.90;;;;;;4975478;28;20058;-62
2023/09/30 08:36:08;;;;;;;19.27;13.57;;;15.20;99.90;;;;;;4975575;28;20053;-63
2023/09/30 08:38:40;;;;;;;19.85;13.05;;;15.30;99.90;;;;;;5004113;28;20061;-60
2023/09/30 08:41:17;;;;;;;20.25;13.35;;;15.50;99.90;;;;;;5010726;28;20479;-61
2023/09/30 08:43:46;;;;;;;19.60;13.43;;;15.50;99.90;;;;;;4972115;28;20125;-62
2023/09/30 08:46:12;;;;;;;21.40;13.18;;;15.70;99.90;;;;;;4991633;28;20124;-63
2023/09/30 08:48:40;;;;;;;18.25;13.18;;;16.00;99.90;;;;;;5004165;28;20049;-62
2023/09/30 08:51:08;;;;;;;18.75;12.00;;;16.00;99.90;;;;;;5011009;28;20404;-62
2023/09/30 08:53:35;;;;;;;15.70;11.57;;;16.20;99.90;;;;;;5011486;28;20057;-62
2023/09/30 08:56:07;;;;;;;18.67;12.82;;;16.20;99.90;;;;;;5010718;28;20439;-61
2023/09/30 08:58:34;;;;;;;17.25;11.40;;;16.30;99.90;;;;;;4999098;28;20051;-62
2023/09/30 09:01:01;;;;;;;17.67;11.15;;;16.30;99.90;;;;;;4991459;28;20397;-63
2023/09/30 09:03:29;;;;;;;16.65;11.35;;;16.30;99.90;;;;;;4991727;28;20057;-63
2023/09/30 09:06:00;;;;;;;16.30;11.48;;;16.40;99.90;;;;;;4991561;28;20042;-62
2023/09/30 09:08:26;;;;;;;18.80;12.52;;;16.60;99.90;;;;;;5000870;28;20088;-62
2023/09/30 09:10:56;;;;;;;19.48;11.93;;;16.60;99.90;;;;;;5010970;28;20072;-63
2023/09/30 09:13:22;;;;;;;20.20;11.70;;;16.70;99.90;;;;;;5010966;28;20057;-61
2023/09/30 09:15:50;;;;;;;16.75;12.05;;;16.70;99.90;;;;;;5009766;28;20068;-62
2023/09/30 09:18:33;;;;;;;16.38;11.07;;;16.90;99.90;;;;;;5006009;28;20050;-63
2023/09/30 09:21:10;;;;;;;18.83;12.15;;;16.90;99.90;;;;;;5006092;28;20055;-62
2023/09/30 09:23:48;;;;;;;19.27;10.73;;;17.10;99.90;;;;;;4991214;28;20147;-62
2023/09/30 09:26:29;;;;;;;16.02;9.85;;;17.20;99.90;;;;;;4991798;28;20095;-62
2023/09/30 09:28:58;;;;;;;19.20;11.00;;;17.40;99.90;;;;;;5005780;28;20112;-64
2023/09/30 09:31:29;;;;;;;14.77;9.68;;;17.50;99.90;;;;;;5010578;28;20080;-63
2023/09/30 09:33:56;;;;;;;18.23;10.68;;;17.60;99.90;;;;;;5011107;28;20053;-61
2023/09/30 09:36:44;;;;;;;18.40;10.60;;;17.70;99.90;;;;;;5011034;28;20451;-62
2023/09/30 09:39:13;;;;;;;16.38;10.10;;;17.60;99.90;;;;;;5004395;28;20046;-61
2023/09/30 09:41:52;;;;;;;16.60;10.13;;;17.70;99.90;;;;;;4993675;28;20125;-63
2023/09/30 09:44:22;;;;;;;15.63;10.55;;;17.70;99.90;;;;;;5010711;28;20157;-63
2023/09/30 09:46:50;;;;;;;19.52;11.00;;;17.70;99.90;;;;;;4993517;28;20137;-63
2023/09/30 09:49:18;;;;;;;14.65;9.40;;;17.90;99.90;;;;;;4976717;28;20041;-62
2023/09/30 09:51:49;;;;;;;16.38;10.38;;;17.90;99.90;;;;;;5010645;28;20042;-62
2023/09/30 09:54:17;;;;;;;15.65;10.32;;;17.90;99.90;;;;;;5010277;28;20391;-62
2023/09/30 09:56:44;;;;;;;13.18;7.97;;;18.00;99.90;;;;;;5010240;28;20049;-64
2023/09/30 09:59:12;;;;;;;13.75;7.75;;;18.00;99.90;;;;;;5010262;28;20065;-63
2023/09/30 10:01:42;;;;;;;15.27;9.27;;;18.00;99.90;;;;;;5009108;28;20395;-64
2023/09/30 10:04:11;;;;;;;10.98;6.90;;;18.00;99.90;;;;;;4992765;28;20473;-61
2023/09/30 10:06:41;;;;;;;17.50;8.07;;;18.00;99.90;;;;;;5009841;28;20378;-63
2023/09/30 10:09:10;;;;;;;12.10;7.10;;;18.10;99.90;;;;;;5010336;28;20046;-63
2023/09/30 10:11:42;;;;;;;12.93;7.50;;;18.20;99.90;;;;;;5009682;28;20148;-63
2023/09/30 10:14:14;;;;;;;10.20;7.18;;;18.30;99.90;;;;;;4992766;28;20441;-62
2023/09/30 10:16:47;;;;;;;13.88;8.23;;;18.30;99.90;;;;;;5010354;28;20054;-63
2023/09/30 10:19:19;;;;;;;10.75;6.70;;;18.30;99.90;;;;;;5009560;28;20046;-63
2023/09/30 10:22:20;;;;;;;10.20;6.32;;;18.30;99.90;;;;;;5010295;28;20046;-61
2023/09/30 10:24:47;;;;;;;9.68;5.20;;;18.50;99.90;;;;;;5009915;28;20041;-61
2023/09/30 10:27:36;;;;;;;12.35;5.90;;;18.60;99.90;;;;;;4992924;28;20053;-63
2023/09/30 10:30:05;;;;;;;14.82;6.25;;;18.60;99.90;;;;;;4992622;28;20053;-63
2023/09/30 10:32:50;;;;;;;8.25;3.53;;;18.70;99.90;;;;;;5009775;28;20400;-61
2023/09/30 10:35:31;;;;;;;8.77;3.67;;;18.70;99.90;;;;;;5009926;28;20064;-61
2023/09/30 10:38:29;;;;;;;6.50;2.78;;;18.80;99.90;;;;;;5009593;28;20064;-63
2023/09/30 10:40:56;;;;;;;8.60;2.92;;;18.80;99.90;;;;;;4996822;28;20116;-62
2023/09/30 10:43:32;;;;;;;5.45;2.45;;;18.70;99.90;;;;;;5009779;28;20045;-61
2023/09/30 10:45:59;;;;;;;5.95;2.20;;;18.80;99.90;;;;;;5007358;28;20041;-62
2023/09/30 10:48:26;;;;;;;7.45;2.30;;;19.00;99.90;;;;;;5009640;28;20049;-62
2023/09/30 10:51:01;;;;;;;8.10;3.15;;;19.00;99.90;;;;;;4992031;28;20087;-64
2023/09/30 10:53:30;;;;;;;5.30;2.22;;;19.00;99.90;;;;;;5010062;28;20049;-62
2023/09/30 10:55:58;;;;;;;6.15;2.17;;;19.10;99.90;;;;;;5009325;28;20463;-62
2023/09/30 10:58:44;;;;;;;7.55;2.30;;;19.10;99.90;;;;;;4983325;28;20414;-61
2023/09/30 11:01:13;;;;;;;6.00;2.55;;;19.20;99.90;;;;;;4989807;28;20065;-61
2023/09/30 11:03:43;;;;;;;5.20;2.00;;;19.40;99.90;;;;;;4982744;28;20041;-64
2023/09/30 11:06:17;;;;;;;9.73;2.83;;;19.40;99.90;;;;;;4991237;28;20042;-64
2023/09/30 11:09:02;;;;;;;6.90;2.40;;;19.30;99.90;;;;;;5009187;28;20173;-65
2023/09/30 11:11:49;;;;;;;8.02;2.50;;;19.30;99.90;;;;;;5006050;28;20482;-62
2023/09/30 11:14:22;;;;;;;12.07;2.47;;;19.40;99.90;;;;;;5009406;28;20042;-64
2023/09/30 11:16:52;;;;;;;7.38;2.83;;;19.40;99.90;;;;;;5009585;28;20130;-63
2023/09/30 11:19:21;;;;;;;5.50;2.53;;;19.40;99.90;;;;;;4991064;28;20065;-63
2023/09/30 11:21:58;;;;;;;9.27;3.13;;;19.40;99.90;;;;;;5009601;28;20109;-64
2023/09/30 11:24:25;;;;;;;6.60;2.20;;;19.50;99.90;;;;;;5009620;28;20072;-63
2023/09/30 11:26:57;;;;;;;6.53;1.98;;;19.60;99.90;;;;;;4992314;28;20042;-64
2023/09/30 11:29:25;;;;;;;6.35;2.13;;;20.00;99.90;;;;;;5008314;28;20054;-63
2023/09/30 11:31:51;;;;;;;5.85;2.17;;;20.10;99.90;;;;;;5009267;28;20054;-63
2023/09/30 11:34:19;;;;;;;7.88;2.13;;;20.10;99.90;;;;;;5009294;28;20046;-64
2023/09/30 11:36:51;;;;;;;9.32;2.45;;;20.30;99.90;;;;;;4991559;28;20049;-65
2023/09/30 11:39:30;;;;;;;5.57;2.22;;;20.20;99.90;;;;;;5007308;28;20434;-64
2023/09/30 11:41:57;;;;;;;6.68;2.30;;;20.30;99.90;;;;;;5008215;28;20068;-61
2023/09/30 11:44:30;;;;;;;4.88;2.55;;;20.20;99.90;;;;;;4991558;28;20420;-61
2023/09/30 11:46:59;;;;;;;8.27;2.63;;;20.10;99.90;;;;;;5005266;28;20133;-63
2023/09/30 11:49:31;;;;;;;6.93;2.58;;;20.10;99.90;;;;;;5007591;28;20778;-64
2023/09/30 11:52:00;;;;;;;6.05;2.35;;;20.30;99.90;;;;;;5007921;28;20034;-63
2023/09/30 11:54:34;;;;;;;9.55;2.78;;;20.30;99.90;;;;;;5010704;28;20061;-62
2023/09/30 11:57:02;;;;;;;6.82;2.60;;;20.30;99.90;;;;;;5009815;28;20115;-64
2023/09/30 11:59:28;;;;;;;6.68;2.65;;;20.30;99.90;;;;;;5010910;28;20054;-62
2023/09/30 12:01:56;;;;;;;8.45;2.40;;;20.20;99.90;;;;;;5012336;28;20579;-62
2023/09/30 12:04:26;;;;;;;7.15;2.60;;;20.20;99.90;;;;;;5012484;28;20050;-62
2023/09/30 12:06:54;;;;;;;6.25;2.50;;;20.10;99.90;;;;;;4995213;28;20046;-62
2023/09/30 12:09:26;;;;;;;7.68;2.85;;;19.90;99.90;;;;;;5011337;28;20046;-64
2023/09/30 12:11:54;;;;;;;6.57;2.92;;;19.90;99.90;;;;;;5012497;28;20049;-61
2023/09/30 12:14:20;;;;;;;6.43;2.25;;;20.00;99.90;;;;;;4994831;28;20430;-62
2023/09/30 12:16:47;;;;;;;9.68;3.00;;;20.20;99.90;;;;;;5011848;28;20049;-62
2023/09/30 12:19:17;;;;;;;7.30;2.92;;;20.10;99.90;;;;;;5022299;28;20054;-60
2023/09/30 12:21:47;;;;;;;7.93;3.03;;;20.00;99.90;;;;;;5010818;28;20180;-62
2023/09/30 12:24:23;;;;;;;7.18;2.40;;;20.00;99.90;;;;;;5012032;28;20049;-61
2023/09/30 12:26:51;;;;;;;6.80;2.70;;;20.00;99.90;;;;;;5012391;28;20042;-60
2023/09/30 12:29:19;;;;;;;9.93;2.45;;;20.10;99.90;;;;;;5011101;28;20383;-62
2023/09/30 12:31:46;;;;;;;5.68;2.58;;;20.10;99.90;;;;;;5012080;28;20058;-63
2023/09/30 12:34:13;;;;;;;8.70;2.97;;;20.30;99.90;;;;;;5011786;28;20042;-63
2023/09/30 12:36:40;;;;;;;7.40;2.88;;;20.30;99.90;;;;;;4994807;28;20049;-62
2023/09/30 12:39:11;;;;;;;7.45;2.58;;;20.30;99.90;;;;;;5010913;28;20073;-59
2023/09/30 12:41:42;;;;;;;7.63;2.70;;;20.40;99.90;;;;;;4995093;28;20049;-60
2023/09/30 12:44:09;;;;;;;5.70;1.95;;;20.30;99.90;;;;;;5011490;28;20457;-63